Time;durP1;ratioP1;P1;durP2;ratioP2;P2;SDS_P1;SDS_P2;PMS_P1;PMS_P2;Temp;Humidity;BMP_temperature;BMP_pressure;BME280_temperature;BME280_humidity;BME280_pressure;Samples;Min_cycle;Max_cycle;Signal;HPM_P1;HPM_P2
2022/05/12 00:00:16;;;;;;;5.70;1.30;;;12.40;99.90;;;;;;5049305;28;20045;-74
2022/05/12 00:02:42;;;;;;;2.50;1.00;;;12.30;99.90;;;;;;5030828;28;20045;-74
2022/05/12 00:05:10;;;;;;;1.95;0.63;;;12.30;99.90;;;;;;5048327;28;20044;-73
2022/05/12 00:07:35;;;;;;;2.75;0.85;;;12.20;99.90;;;;;;5050671;28;20044;-74
2022/05/12 00:10:03;;;;;;;0.95;0.57;;;12.10;99.90;;;;;;5050129;28;20601;-74
2022/05/12 00:12:28;;;;;;;3.95;0.80;;;12.10;99.90;;;;;;5052978;28;20040;-74
2022/05/12 00:14:54;;;;;;;2.10;0.70;;;12.10;99.90;;;;;;5035015;28;20082;-74
2022/05/12 00:17:19;;;;;;;2.40;1.30;;;11.90;99.90;;;;;;5050641;28;20539;-74
2022/05/12 00:19:45;;;;;;;2.75;0.95;;;11.90;99.90;;;;;;5039840;28;20044;-74
2022/05/12 00:22:11;;;;;;;3.63;1.08;;;11.80;99.90;;;;;;5051114;28;20048;-74
2022/05/12 00:24:36;;;;;;;5.60;1.23;;;11.70;99.90;;;;;;5053841;28;20051;-75
2022/05/12 00:27:02;;;;;;;5.15;1.00;;;11.70;99.90;;;;;;5051029;28;20041;-74
2022/05/12 00:29:28;;;;;;;3.35;1.00;;;11.60;99.90;;;;;;5053813;28;20083;-74
2022/05/12 00:31:53;;;;;;;4.22;0.98;;;11.60;99.90;;;;;;5051150;28;20052;-74
2022/05/12 00:34:20;;;;;;;4.00;0.95;;;11.60;99.90;;;;;;5050532;28;20071;-74
2022/05/12 00:36:47;;;;;;;2.47;1.00;;;11.50;99.90;;;;;;5053126;28;20486;-75
2022/05/12 00:39:13;;;;;;;4.10;1.10;;;11.40;99.90;;;;;;5042127;28;20084;-74
2022/05/12 00:41:39;;;;;;;3.58;1.10;;;11.40;99.90;;;;;;5032964;28;20043;-74
2022/05/12 00:44:09;;;;;;;3.15;1.00;;;11.30;99.90;;;;;;5052431;28;20032;-75
2022/05/12 00:46:38;;;;;;;4.53;1.27;;;11.30;99.90;;;;;;5052321;28;20037;-74
2022/05/12 00:49:28;;;;;;;2.80;0.77;;;11.30;99.90;;;;;;5053059;28;20162;-74
2022/05/12 00:52:20;;;;;;;3.55;1.10;;;11.20;99.90;;;;;;5033876;28;20052;-74
2022/05/12 00:54:51;;;;;;;6.28;1.10;;;11.20;99.90;;;;;;5040171;28;20048;-74
2022/05/12 00:57:31;;;;;;;2.17;0.88;;;11.10;99.90;;;;;;5069572;28;20049;-74
2022/05/12 00:59:58;;;;;;;3.33;1.13;;;11.20;99.90;;;;;;5069956;28;20381;-74
2022/05/12 01:02:25;;;;;;;4.95;1.30;;;11.10;99.90;;;;;;5035893;28;20548;-74
2022/05/12 01:04:51;;;;;;;2.55;0.98;;;11.00;99.90;;;;;;5037582;28;20032;-74
2022/05/12 01:07:16;;;;;;;2.22;0.82;;;11.00;99.90;;;;;;5049042;28;20074;-74
2022/05/12 01:09:43;;;;;;;3.55;0.90;;;10.90;99.90;;;;;;5049847;28;20550;-75
2022/05/12 01:12:10;;;;;;;2.30;0.80;;;10.90;99.90;;;;;;5052312;28;20173;-74
2022/05/12 01:14:35;;;;;;;3.75;1.20;;;10.90;99.90;;;;;;5051347;28;20071;-75
2022/05/12 01:17:02;;;;;;;3.92;0.93;;;10.80;99.90;;;;;;5048093;28;20075;-74
2022/05/12 01:19:31;;;;;;;1.77;1.00;;;10.80;99.90;;;;;;5050184;28;20041;-74
2022/05/12 01:21:58;;;;;;;1.98;0.70;;;10.70;99.90;;;;;;5052788;28;20041;-74
2022/05/12 01:24:29;;;;;;;3.25;0.90;;;10.70;99.90;;;;;;5050411;28;20947;-74
2022/05/12 01:26:55;;;;;;;3.75;1.08;;;10.70;99.90;;;;;;5069542;28;20055;-74
2022/05/12 01:29:20;;;;;;;2.05;0.90;;;10.60;99.90;;;;;;5053089;28;20032;-75
2022/05/12 01:31:46;;;;;;;5.13;1.20;;;10.60;99.90;;;;;;5041867;28;20044;-74
2022/05/12 01:34:12;;;;;;;3.65;1.02;;;10.60;99.90;;;;;;5052919;28;20037;-74
2022/05/12 01:36:38;;;;;;;3.38;1.20;;;10.50;99.90;;;;;;5052152;28;20114;-75
2022/05/12 01:39:06;;;;;;;2.05;1.23;;;10.50;99.90;;;;;;5048853;28;20505;-75
2022/05/12 01:41:32;;;;;;;3.42;1.08;;;10.40;99.90;;;;;;5050388;28;20072;-74
2022/05/12 01:44:00;;;;;;;4.53;1.17;;;10.40;99.90;;;;;;5053800;28;20082;-74
2022/05/12 01:46:26;;;;;;;3.15;1.60;;;10.40;99.90;;;;;;5050626;28;21140;-75
2022/05/12 01:48:51;;;;;;;2.33;1.10;;;10.40;99.90;;;;;;5052736;28;20045;-75
2022/05/12 01:51:17;;;;;;;3.63;1.33;;;10.40;99.90;;;;;;5041140;28;20578;-75
2022/05/12 01:53:43;;;;;;;3.38;1.58;;;10.30;99.90;;;;;;5033776;28;20044;-75
2022/05/12 01:56:09;;;;;;;4.05;1.50;;;10.30;99.90;;;;;;5034701;28;20048;-73
2022/05/12 01:58:35;;;;;;;6.80;1.50;;;10.30;99.90;;;;;;5050425;28;20505;-75
2022/05/12 02:01:00;;;;;;;3.28;1.30;;;10.30;99.90;;;;;;5050992;28;20040;-74
2022/05/12 02:03:26;;;;;;;4.95;1.70;;;10.30;99.90;;;;;;5044356;28;20040;-74
2022/05/12 02:05:52;;;;;;;3.17;1.20;;;10.30;99.90;;;;;;5045249;28;20040;-74
2022/05/12 02:08:18;;;;;;;3.78;1.40;;;10.30;99.90;;;;;;5042100;28;20380;-74
2022/05/12 02:10:48;;;;;;;3.50;1.30;;;10.30;99.90;;;;;;5066779;28;20520;-74
2022/05/12 02:13:17;;;;;;;3.70;1.92;;;10.20;99.90;;;;;;5049941;28;20040;-75
2022/05/12 02:15:43;;;;;;;4.43;1.73;;;10.20;99.90;;;;;;5034776;28;20048;-75
2022/05/12 02:18:09;;;;;;;2.28;1.10;;;10.20;99.90;;;;;;5054162;28;20076;-76
2022/05/12 02:20:36;;;;;;;3.65;1.55;;;10.20;99.90;;;;;;5037609;28;20025;-77
2022/05/12 02:23:01;;;;;;;4.60;1.65;;;10.10;99.90;;;;;;5052459;28;20547;-77
2022/05/12 02:25:27;;;;;;;3.72;1.45;;;10.10;99.90;;;;;;5052502;28;20045;-75
2022/05/12 02:27:55;;;;;;;5.57;1.60;;;10.00;99.90;;;;;;5043085;28;20045;-76
2022/05/12 02:30:27;;;;;;;3.25;1.58;;;10.00;99.90;;;;;;5044716;28;20146;-76
2022/05/12 02:32:54;;;;;;;4.82;1.50;;;10.00;99.90;;;;;;5051860;28;20049;-77
2022/05/12 02:35:20;;;;;;;2.97;1.45;;;10.00;99.90;;;;;;5036691;28;20044;-77
2022/05/12 02:37:46;;;;;;;4.97;2.15;;;9.90;99.90;;;;;;5037689;28;20037;-76
2022/05/12 02:40:15;;;;;;;6.18;1.58;;;9.90;99.90;;;;;;5049979;28;20051;-77
2022/05/12 02:42:41;;;;;;;4.60;2.33;;;9.90;99.90;;;;;;5040881;28;20040;-76
2022/05/12 02:45:07;;;;;;;2.80;1.73;;;9.90;99.90;;;;;;5036856;28;20397;-75
2022/05/12 02:47:33;;;;;;;4.10;1.80;;;9.90;99.90;;;;;;5054107;28;20033;-76
2022/05/12 02:49:59;;;;;;;5.07;2.15;;;9.80;99.90;;;;;;5022514;28;20044;-76
2022/05/12 02:52:24;;;;;;;4.05;1.55;;;9.90;99.90;;;;;;5049687;28;20033;-76
2022/05/12 02:54:50;;;;;;;6.40;2.28;;;9.90;99.90;;;;;;5048927;28;20044;-75
2022/05/12 02:57:15;;;;;;;6.15;2.17;;;9.90;99.90;;;;;;5053408;28;20032;-77
2022/05/12 02:59:41;;;;;;;2.85;2.20;;;9.90;99.90;;;;;;5050423;28;20041;-76
2022/05/12 03:02:06;;;;;;;9.02;2.90;;;9.80;99.90;;;;;;5054164;28;20082;-76
2022/05/12 03:04:33;;;;;;;6.10;2.28;;;9.70;99.90;;;;;;5036648;28;20105;-76
2022/05/12 03:06:58;;;;;;;4.03;2.30;;;9.70;99.90;;;;;;5052953;28;20044;-75
2022/05/12 03:09:24;;;;;;;5.05;2.40;;;9.60;99.90;;;;;;5052378;28;20107;-76
2022/05/12 03:11:50;;;;;;;3.50;2.25;;;9.60;99.90;;;;;;5050851;28;20029;-76
2022/05/12 03:14:16;;;;;;;6.45;2.45;;;9.50;99.90;;;;;;5046296;28;20072;-75
2022/05/12 03:16:42;;;;;;;3.08;2.20;;;9.50;99.90;;;;;;5040366;28;20485;-76
2022/05/12 03:19:08;;;;;;;3.55;2.33;;;9.50;99.90;;;;;;5053123;28;20043;-76
2022/05/12 03:21:34;;;;;;;3.17;1.90;;;9.50;99.90;;;;;;5042201;28;20033;-77
2022/05/12 03:23:59;;;;;;;5.30;2.50;;;9.40;99.90;;;;;;5052282;28;20159;-77
2022/05/12 03:26:25;;;;;;;3.90;2.55;;;9.40;99.90;;;;;;5051621;28;20502;-76
2022/05/12 03:28:51;;;;;;;5.13;2.63;;;9.40;99.90;;;;;;5035957;28;20059;-77
2022/05/12 03:31:17;;;;;;;6.90;2.85;;;9.30;99.90;;;;;;5042694;28;20036;-77
2022/05/12 03:33:43;;;;;;;5.53;2.40;;;9.30;99.90;;;;;;5050605;28;20075;-76
2022/05/12 03:36:08;;;;;;;4.88;2.40;;;9.30;99.90;;;;;;5052401;28;20128;-77
2022/05/12 03:38:35;;;;;;;3.92;2.40;;;9.20;99.90;;;;;;5028055;28;20115;-76
2022/05/12 03:41:00;;;;;;;6.53;2.70;;;9.20;99.90;;;;;;5033943;28;20039;-75
2022/05/12 03:46:12;;;;;;;6.53;2.40;;;9.20;99.90;;;;;;5049814;28;20378;-76
2022/05/12 03:48:39;;;;;;;4.13;2.35;;;9.10;99.90;;;;;;5023568;28;20036;-77
2022/05/12 03:51:06;;;;;;;7.65;2.83;;;9.20;99.90;;;;;;5053588;28;20043;-76
2022/05/12 03:53:33;;;;;;;7.80;2.40;;;9.20;99.90;;;;;;5047393;28;20628;-76
2022/05/12 03:55:59;;;;;;;8.75;2.83;;;9.20;99.90;;;;;;5039699;28;20378;-76
2022/05/12 03:58:25;;;;;;;10.85;2.97;;;9.20;99.90;;;;;;5056456;28;20356;-77
2022/05/12 04:00:51;;;;;;;31.23;5.00;;;9.20;99.90;;;;;;5055440;28;20044;-77
2022/05/12 04:03:17;;;;;;;7.95;3.00;;;9.30;99.90;;;;;;5047118;28;20044;-77
2022/05/12 04:05:43;;;;;;;5.32;2.63;;;9.30;99.90;;;;;;5055625;28;20489;-76
2022/05/12 04:08:08;;;;;;;5.90;3.08;;;9.30;99.90;;;;;;5055347;28;20469;-77
2022/05/12 04:10:34;;;;;;;7.25;2.78;;;9.30;99.90;;;;;;5056009;28;20514;-78
2022/05/12 04:13:00;;;;;;;7.75;3.35;;;9.30;99.90;;;;;;5054542;28;20658;-77
2022/05/12 04:15:26;;;;;;;7.90;3.08;;;9.30;99.90;;;;;;5056335;28;20041;-76
2022/05/12 04:18:02;;;;;;;5.72;3.08;;;9.40;99.90;;;;;;5050733;28;20044;-78
2022/05/12 04:20:30;;;;;;;7.15;2.70;;;9.40;99.90;;;;;;5045346;28;20039;-76
2022/05/12 04:22:57;;;;;;;4.70;2.80;;;9.40;99.90;;;;;;5039180;28;20055;-76
2022/05/12 04:25:24;;;;;;;5.68;3.22;;;9.40;99.90;;;;;;5046440;28;20128;-77
2022/05/12 04:27:50;;;;;;;8.57;3.60;;;9.50;99.90;;;;;;5038258;28;20537;-76
2022/05/12 04:30:19;;;;;;;10.85;3.67;;;9.50;99.90;;;;;;5052090;28;20072;-75
2022/05/12 04:32:44;;;;;;;6.38;3.20;;;9.60;99.90;;;;;;5036569;28;20060;-77
2022/05/12 04:35:14;;;;;;;7.78;3.28;;;9.70;99.90;;;;;;5054649;28;20052;-76
2022/05/12 04:37:45;;;;;;;7.03;3.47;;;9.70;99.90;;;;;;5043353;28;20035;-76
2022/05/12 04:40:20;;;;;;;10.07;4.38;;;9.80;99.90;;;;;;5051484;28;20459;-76
2022/05/12 04:42:48;;;;;;;10.20;3.70;;;9.90;99.90;;;;;;5047570;28;20090;-76
2022/05/12 04:45:15;;;;;;;10.63;4.28;;;9.90;99.90;;;;;;5056129;28;20033;-76
2022/05/12 04:47:42;;;;;;;6.32;3.35;;;10.00;99.90;;;;;;5055247;28;20147;-76
2022/05/12 04:50:12;;;;;;;9.02;3.38;;;10.10;99.90;;;;;;5055915;28;20119;-76
2022/05/12 04:52:38;;;;;;;8.68;4.15;;;10.20;99.90;;;;;;5056237;28;20040;-77
2022/05/12 04:55:04;;;;;;;8.07;3.80;;;10.20;99.90;;;;;;5054326;28;20032;-76
2022/05/12 04:57:41;;;;;;;8.75;4.15;;;10.30;99.90;;;;;;5053617;28;20523;-77
2022/05/12 05:00:10;;;;;;;9.15;3.85;;;10.40;99.90;;;;;;5041155;28;20162;-76
2022/05/12 05:02:36;;;;;;;8.65;3.90;;;10.50;99.90;;;;;;5046131;28;20097;-76
2022/05/12 05:05:04;;;;;;;7.20;4.15;;;10.60;99.90;;;;;;5053815;28;20047;-77
2022/05/12 05:07:30;;;;;;;7.55;3.75;;;10.70;99.90;;;;;;5046277;28;20115;-76
2022/05/12 05:09:55;;;;;;;5.78;4.50;;;10.80;99.90;;;;;;5046737;28;20128;-76
2022/05/12 05:12:21;;;;;;;7.70;3.97;;;10.90;99.90;;;;;;5052841;28;20123;-77
2022/05/12 05:14:46;;;;;;;10.10;4.20;;;11.10;99.90;;;;;;5053860;28;20047;-75
2022/05/12 05:17:12;;;;;;;8.35;4.03;;;11.20;99.90;;;;;;5054011;28;20710;-77
2022/05/12 05:19:37;;;;;;;6.60;4.40;;;11.30;99.90;;;;;;5053772;28;20041;-76
2022/05/12 05:22:03;;;;;;;14.30;4.13;;;11.30;99.90;;;;;;5036271;28;20040;-75
2022/05/12 05:24:29;;;;;;;11.93;4.70;;;11.40;99.90;;;;;;5041214;28;20094;-77
2022/05/12 05:26:55;;;;;;;7.53;4.13;;;11.50;99.90;;;;;;5054321;28;20041;-76
2022/05/12 05:29:20;;;;;;;10.95;4.55;;;11.60;99.90;;;;;;5037596;28;20049;-76
2022/05/12 05:31:46;;;;;;;11.25;4.68;;;11.70;99.90;;;;;;5054294;28;20071;-77
2022/05/12 05:34:12;;;;;;;7.75;4.15;;;11.80;99.90;;;;;;5054116;28;20466;-77
2022/05/12 05:36:40;;;;;;;9.85;4.80;;;11.80;99.90;;;;;;5037679;28;20056;-76
2022/05/12 05:39:07;;;;;;;9.27;4.50;;;11.90;99.90;;;;;;5037571;28;20037;-76
2022/05/12 05:41:35;;;;;;;12.63;4.80;;;12.00;99.90;;;;;;5026203;28;20487;-77
2022/05/12 05:44:00;;;;;;;11.88;4.45;;;12.20;99.90;;;;;;5034948;28;20094;-76
2022/05/12 05:46:26;;;;;;;8.18;4.43;;;12.30;99.90;;;;;;5034842;28;20036;-76
2022/05/12 05:48:52;;;;;;;15.25;4.22;;;12.50;99.90;;;;;;5018409;28;20044;-75
2022/05/12 05:54:01;;;;;;;7.55;3.72;;;15.00;99.90;;;;;;5054365;28;20482;-76
2022/05/12 05:56:27;;;;;;;5.53;3.85;;;17.00;99.90;;;;;;5054148;28;20048;-76
2022/05/12 05:58:52;;;;;;;7.35;3.65;;;18.30;99.90;;;;;;5056492;28;20052;-77
2022/05/12 06:01:18;;;;;;;6.80;3.30;;;19.40;99.90;;;;;;5044222;28;20051;-77
2022/05/12 06:03:45;;;;;;;8.75;3.50;;;20.40;99.90;;;;;;5054006;28;20041;-77
2022/05/12 06:06:11;;;;;;;11.90;3.90;;;20.90;99.40;;;;;;5036223;28;20091;-76
2022/05/12 06:08:37;;;;;;;7.40;3.85;;;20.70;98.90;;;;;;5055723;28;20040;-76
2022/05/12 06:11:04;;;;;;;10.23;4.00;;;20.80;98.20;;;;;;5053647;28;20048;-76
2022/05/12 06:13:32;;;;;;;7.55;3.22;;;20.80;97.10;;;;;;5053877;28;20052;-77
2022/05/12 06:15:58;;;;;;;6.97;3.88;;;21.00;96.00;;;;;;5053676;28;20539;-76
2022/05/12 06:18:24;;;;;;;8.77;3.30;;;21.50;96.50;;;;;;5052601;28;20041;-76
2022/05/12 06:20:50;;;;;;;6.57;3.13;;;22.30;96.30;;;;;;5036871;28;20032;-76
2022/05/12 06:23:17;;;;;;;7.82;3.10;;;22.80;94.40;;;;;;5050831;28;20060;-76
2022/05/12 06:25:44;;;;;;;6.90;3.33;;;23.30;92.20;;;;;;5036134;28;20205;-76
2022/05/12 06:28:10;;;;;;;6.45;3.15;;;23.60;90.70;;;;;;5053600;28;20064;-76
2022/05/12 06:30:37;;;;;;;7.97;3.47;;;23.80;89.70;;;;;;5036623;28;20044;-76
2022/05/12 06:33:03;;;;;;;7.55;3.15;;;24.50;86.20;;;;;;5047153;28;20044;-77
2022/05/12 06:35:29;;;;;;;5.60;3.08;;;25.00;82.10;;;;;;5053246;28;20169;-76
2022/05/12 06:37:54;;;;;;;4.68;2.50;;;24.90;80.50;;;;;;5028717;22;20535;-75
2022/05/12 06:40:21;;;;;;;7.07;2.78;;;25.20;78.30;;;;;;4992945;28;20043;-76
2022/05/12 06:42:47;;;;;;;4.90;2.58;;;25.40;76.00;;;;;;4992942;28;20380;-76
2022/05/12 06:45:16;;;;;;;5.72;2.63;;;25.70;75.20;;;;;;4992610;28;20046;-76
2022/05/12 06:47:50;;;;;;;8.10;2.88;;;25.90;73.50;;;;;;4992415;28;20046;-76
2022/05/12 06:50:25;;;;;;;4.63;2.60;;;26.00;73.10;;;;;;4992840;28;20121;-76
2022/05/12 06:52:53;;;;;;;9.95;3.25;;;26.10;68.70;;;;;;4993111;28;20494;-76
2022/05/12 06:55:20;;;;;;;8.90;2.63;;;26.50;72.40;;;;;;4982705;28;20050;-76
2022/05/12 06:57:45;;;;;;;5.50;2.33;;;26.90;69.70;;;;;;4977296;28;20054;-76
2022/05/12 07:00:16;;;;;;;6.15;2.45;;;27.20;69.00;;;;;;4990095;28;20065;-76
2022/05/12 07:02:42;;;;;;;7.30;2.95;;;27.20;67.50;;;;;;4992480;28;20046;-76
2022/05/12 07:05:08;;;;;;;6.57;2.95;;;27.10;64.20;;;;;;4976261;28;20045;-76
2022/05/12 07:07:35;;;;;;;6.45;2.90;;;27.20;65.40;;;;;;4992575;28;20100;-76
2022/05/12 07:10:01;;;;;;;5.18;2.28;;;27.10;63.00;;;;;;4992745;28;20448;-76
2022/05/12 07:12:26;;;;;;;7.40;2.72;;;27.00;62.30;;;;;;4992019;28;20126;-76
2022/05/12 07:14:52;;;;;;;6.72;2.00;;;;;;;;;;4992275;28;20042;-76
2022/05/12 07:17:22;;;;;;;8.50;2.47;;;27.40;60.80;;;;;;4992605;28;20133;-76
2022/05/12 07:19:49;;;;;;;5.07;2.35;;;27.80;61.50;;;;;;4977212;28;20039;-76
2022/05/12 07:27:43;;;;;;;3.30;1.70;;;27.30;56.40;;;;;;4996533;28;20050;-76
2022/05/12 07:30:11;;;;;;;3.47;1.30;;;27.30;57.50;;;;;;4980061;28;20046;-76
2022/05/12 07:32:37;;;;;;;3.08;1.40;;;27.30;57.80;;;;;;4980163;28;20092;-76
2022/05/12 07:35:05;;;;;;;5.55;1.20;;;27.20;56.30;;;;;;4996315;28;20416;-76
2022/05/12 07:37:30;;;;;;;4.05;1.40;;;27.10;55.80;;;;;;4995866;28;20065;-76
2022/05/12 07:39:56;;;;;;;12.68;2.00;;;27.30;57.30;;;;;;4988000;28;20042;-76
2022/05/12 07:42:22;;;;;;;3.47;1.50;;;27.10;57.40;;;;;;4995172;28;20147;-75
2022/05/12 07:44:47;;;;;;;2.78;1.35;;;27.30;56.70;;;;;;4995264;28;20038;-75
2022/05/12 07:47:13;;;;;;;4.55;2.10;;;27.30;57.60;;;;;;4995215;28;20074;-75
2022/05/12 07:49:40;;;;;;;3.83;1.60;;;27.40;55.50;;;;;;4978971;28;20050;-76
2022/05/12 07:52:08;;;;;;;6.60;1.50;;;27.40;56.40;;;;;;4981987;28;20078;-76
2022/05/12 07:54:35;;;;;;;4.47;1.70;;;27.20;56.20;;;;;;4994830;28;20065;-76
2022/05/12 07:57:01;;;;;;;11.90;2.38;;;25.60;56.20;;;;;;4994693;28;20124;-76
2022/05/12 07:59:31;;;;;;;4.55;1.30;;;24.40;58.30;;;;;;4994288;28;20038;-76
2022/05/12 08:01:58;;;;;;;7.18;2.08;;;24.00;60.40;;;;;;4992604;28;20060;-76
2022/05/12 08:04:24;;;;;;;5.88;1.98;;;23.20;60.60;;;;;;4993453;28;20396;-76
2022/05/12 08:06:50;;;;;;;4.90;2.10;;;22.60;63.70;;;;;;4994254;28;20038;-75
2022/05/12 08:09:16;;;;;;;5.57;1.83;;;22.10;64.70;;;;;;4976800;28;20041;-75
2022/05/12 08:11:41;;;;;;;4.70;1.90;;;21.60;65.60;;;;;;5008602;28;20039;-75
2022/05/12 08:14:07;;;;;;;5.43;1.67;;;21.40;66.40;;;;;;4993108;28;20121;-75
2022/05/12 08:16:34;;;;;;;5.55;1.67;;;21.10;66.50;;;;;;4993227;28;20105;-75
2022/05/12 08:18:59;;;;;;;6.55;1.92;;;20.80;68.20;;;;;;4977269;28;20504;-75
2022/05/12 08:21:25;;;;;;;3.92;1.50;;;20.70;69.30;;;;;;4988571;28;20097;-75
2022/05/12 08:23:54;;;;;;;2.92;1.20;;;20.60;70.70;;;;;;4992357;28;20558;-75
2022/05/12 08:26:21;;;;;;;7.90;1.70;;;20.50;69.60;;;;;;4993191;28;20041;-75
2022/05/12 08:28:49;;;;;;;3.92;1.55;;;20.10;70.80;;;;;;4977456;28;20042;-74
2022/05/12 08:31:14;;;;;;;5.25;1.50;;;20.00;71.40;;;;;;5003246;28;20066;-74
2022/05/12 08:33:40;;;;;;;3.78;1.23;;;20.00;72.40;;;;;;4973867;28;20077;-74
2022/05/12 08:36:07;;;;;;;9.98;1.73;;;20.00;71.20;;;;;;4973873;28;20054;-74
2022/05/12 08:38:34;;;;;;;5.60;1.75;;;20.00;72.40;;;;;;4980051;28;20054;-74
2022/05/12 08:41:24;;;;;;;5.82;1.60;;;20.10;72.50;;;;;;4990894;28;20472;-74
2022/05/12 08:44:00;;;;;;;4.93;1.52;;;20.10;72.00;;;;;;4977111;28;20054;-74
2022/05/12 08:46:44;;;;;;;6.80;1.42;;;20.10;70.80;;;;;;4993181;28;20042;-75
2022/05/12 08:49:26;;;;;;;6.80;1.42;;;20.30;72.00;;;;;;4988923;28;20587;-74
2022/05/12 08:52:18;;;;;;;2.83;1.02;;;20.50;71.20;;;;;;5000101;28;20050;-74
2022/05/12 08:54:52;;;;;;;7.03;1.40;;;20.40;71.20;;;;;;4993989;28;20046;-74
2022/05/12 08:57:40;;;;;;;5.72;1.40;;;20.30;70.60;;;;;;4993982;28;20436;-74
2022/05/12 09:00:09;;;;;;;4.93;1.20;;;20.30;70.20;;;;;;4978178;28;20594;-74
2022/05/12 09:02:59;;;;;;;56.47;6.70;;;20.20;71.70;;;;;;4978489;28;20391;-74
2022/05/12 09:05:42;;;;;;;5.15;1.27;;;20.30;71.40;;;;;;4993410;28;20073;-74
2022/05/12 09:08:41;;;;;;;3.22;0.93;;;20.40;71.90;;;;;;5005908;28;20154;-74
2022/05/12 09:11:39;;;;;;;3.83;1.35;;;20.40;71.00;;;;;;4993847;28;20044;-74
2022/05/12 09:14:10;;;;;;;5.30;1.73;;;20.30;72.20;;;;;;4971416;28;20046;-74
2022/05/12 09:16:36;;;;;;;3.65;1.65;;;20.20;72.60;;;;;;4994028;28;20046;-74
2022/05/12 09:19:02;;;;;;;4.90;1.30;;;20.10;72.40;;;;;;4994849;28;20054;-74
2022/05/12 09:21:31;;;;;;;5.45;1.40;;;20.00;73.70;;;;;;4976105;28;20034;-74
2022/05/12 09:23:57;;;;;;;4.00;1.58;;;20.00;73.50;;;;;;4992034;28;20050;-74
2022/05/12 09:26:41;;;;;;;4.65;1.25;;;20.10;73.80;;;;;;4989624;28;20035;-73
2022/05/12 09:29:12;;;;;;;5.65;1.48;;;20.30;73.00;;;;;;4993972;28;20050;-73
2022/05/12 09:31:38;;;;;;;2.88;1.25;;;20.60;72.00;;;;;;4993721;28;20038;-74
2022/05/12 09:34:32;;;;;;;4.30;1.20;;;20.70;69.70;;;;;;4993312;28;20064;-73
2022/05/12 09:37:28;;;;;;;2.90;1.30;;;20.70;70.30;;;;;;4993166;28;20057;-73
2022/05/12 09:39:57;;;;;;;17.08;2.22;;;20.60;71.50;;;;;;4946096;28;20105;-74
2022/05/12 09:42:28;;;;;;;4.72;1.20;;;20.50;70.00;;;;;;4972577;28;20361;-74
2022/05/12 09:44:56;;;;;;;4.97;1.38;;;20.30;72.00;;;;;;4976739;28;20149;-74
2022/05/12 09:47:22;;;;;;;3.80;1.40;;;20.20;71.40;;;;;;4976901;28;20081;-74
2022/05/12 09:49:48;;;;;;;4.82;1.45;;;20.10;72.30;;;;;;4977664;28;20049;-74
2022/05/12 09:52:36;;;;;;;4.88;1.48;;;19.90;73.60;;;;;;4991615;28;20492;-74
2022/05/12 09:55:10;;;;;;;10.48;1.83;;;19.60;74.60;;;;;;4972345;28;20030;-73
2022/05/12 09:57:42;;;;;;;7.43;1.40;;;19.40;76.50;;;;;;4976221;28;20469;-73
2022/05/12 10:00:22;;;;;;;3.47;1.85;;;19.40;75.80;;;;;;4992263;28;20042;-74
2022/05/12 10:08:27;;;;;;;3.50;1.20;;;19.50;76.20;;;;;;4957498;28;20046;-74
2022/05/12 10:11:04;;;;;;;4.75;1.30;;;19.40;75.70;;;;;;4991923;28;20058;-74
2022/05/12 10:13:47;;;;;;;5.35;1.42;;;19.40;76.30;;;;;;4991945;28;20856;-73
2022/05/12 10:16:17;;;;;;;5.90;1.42;;;19.50;75.50;;;;;;4991510;28;20046;-74
2022/05/12 10:18:47;;;;;;;3.13;1.10;;;19.50;74.60;;;;;;4991540;28;20484;-74
2022/05/12 10:22:09;;;;;;;3.83;1.20;;;19.50;73.30;;;;;;4976855;28;20081;-74
2022/05/12 10:24:44;;;;;;;4.13;1.02;;;19.60;70.50;;;;;;4875726;29;20058;-74
2022/05/12 10:27:16;;;;;;;4.07;1.20;;;19.50;74.30;;;;;;4973368;28;20050;-74
2022/05/12 10:30:07;;;;;;;3.58;1.20;;;19.40;73.70;;;;;;4973756;28;20038;-74
2022/05/12 10:32:54;;;;;;;4.95;1.20;;;19.50;74.50;;;;;;4974625;28;20049;-74
2022/05/12 10:35:54;;;;;;;2.22;1.10;;;19.70;75.00;;;;;;4971481;28;20038;-74
2022/05/12 10:39:05;;;;;;;3.60;1.55;;;19.80;73.60;;;;;;4963062;28;20057;-74
2022/05/12 10:41:36;;;;;;;5.57;1.25;;;19.80;74.00;;;;;;4971236;28;20042;-74
2022/05/12 10:44:19;;;;;;;5.03;1.17;;;19.80;74.20;;;;;;5000581;28;20050;-73
2022/05/12 10:47:41;;;;;;;3.60;1.20;;;19.80;72.20;;;;;;5009266;28;20041;-73
2022/05/12 10:50:14;;;;;;;4.97;1.70;;;19.70;72.60;;;;;;4958353;28;20176;-73
2022/05/12 10:52:55;;;;;;;5.40;1.70;;;19.60;73.30;;;;;;5009296;28;20054;-73
2022/05/12 10:55:34;;;;;;;4.53;1.20;;;19.40;72.20;;;;;;5008860;28;20069;-73
2022/05/12 10:58:22;;;;;;;5.00;1.40;;;19.50;73.50;;;;;;5007519;28;20057;-73
2022/05/12 11:00:55;;;;;;;3.88;1.42;;;19.50;73.60;;;;;;5002777;28;20084;-74
2022/05/12 11:03:48;;;;;;;3.78;1.30;;;19.60;73.20;;;;;;5009156;28;20049;-74
2022/05/12 11:06:18;;;;;;;3.08;1.40;;;19.90;73.90;;;;;;4980744;28;20046;-73
2022/05/12 11:08:55;;;;;;;4.47;1.20;;;19.90;71.40;;;;;;5001364;28;20408;-73
2022/05/12 11:11:48;;;;;;;3.65;1.40;;;19.80;71.90;;;;;;5007628;28;20538;-74
2022/05/12 11:14:22;;;;;;;4.32;1.60;;;20.10;72.20;;;;;;4991638;28;20048;-73
2022/05/12 11:17:14;;;;;;;5.13;1.00;;;20.40;70.70;;;;;;5006303;28;20060;-73
2022/05/12 11:19:43;;;;;;;;;;;20.50;66.80;;;;;;4975530;28;20050;-73
2022/05/12 11:22:11;;;;;;;2.60;1.10;;;20.60;68.00;;;;;;5006907;28;19927;-74
2022/05/12 11:24:49;;;;;;;2.88;1.15;;;20.50;66.50;;;;;;5021216;28;20065;-73
2022/05/12 11:27:44;;;;;;;3.15;1.00;;;20.80;68.40;;;;;;5006352;28;20051;-74
2022/05/12 11:30:25;;;;;;;2.47;0.80;;;20.90;66.70;;;;;;5008276;28;20184;-74
2022/05/12 11:33:29;;;;;;;6.57;1.27;;;21.20;66.90;;;;;;5002009;28;20122;-74
2022/05/12 11:35:55;;;;;;;4.10;1.00;;;21.30;68.50;;;;;;4998396;28;20041;-74
2022/05/12 11:38:39;;;;;;;4.72;1.30;;;21.40;64.90;;;;;;5004410;28;20042;-73
2022/05/12 11:41:08;;;;;;;2.40;0.90;;;21.50;63.70;;;;;;4992268;28;20088;-73
2022/05/12 11:46:53;;;;;;;5.00;1.00;;;21.70;63.80;;;;;;5008065;28;20054;-73
2022/05/12 11:49:43;;;;;;;4.35;1.23;;;21.80;65.20;;;;;;5001834;28;20042;-73
2022/05/12 11:52:12;;;;;;;4.07;1.30;;;21.70;66.20;;;;;;5009097;28;20184;-73
2022/05/12 11:54:48;;;;;;;2.78;1.17;;;21.40;59.40;;;;;;5008922;28;20073;-73
2022/05/12 11:57:28;;;;;;;2.45;0.88;;;21.50;65.70;;;;;;5008722;28;20104;-73
2022/05/12 11:59:58;;;;;;;2.72;1.10;;;21.60;64.80;;;;;;5008825;28;20129;-73
2022/05/12 12:02:32;;;;;;;6.97;1.20;;;21.50;64.10;;;;;;5009154;28;20046;-73
2022/05/12 12:05:03;;;;;;;3.40;1.10;;;21.70;66.90;;;;;;5005282;28;20049;-73
2022/05/12 12:07:32;;;;;;;3.13;0.93;;;21.70;64.70;;;;;;5004082;28;20414;-73
2022/05/12 12:10:22;;;;;;;3.03;0.93;;;21.50;64.30;;;;;;5012602;28;20104;-73
2022/05/12 12:13:13;;;;;;;4.40;0.73;;;21.50;62.20;;;;;;5012489;28;20132;-73
2022/05/12 12:15:57;;;;;;;3.25;1.10;;;21.60;64.90;;;;;;4989301;28;20487;-73
2022/05/12 12:18:25;;;;;;;2.35;0.80;;;21.60;61.20;;;;;;4998854;28;20912;-74
2022/05/12 12:21:00;;;;;;;3.25;0.98;;;21.60;61.40;;;;;;5021615;28;20054;-74
2022/05/12 12:23:33;;;;;;;2.47;0.90;;;21.80;60.50;;;;;;5026374;28;20053;-74
2022/05/12 12:26:11;;;;;;;2.97;0.98;;;21.70;60.80;;;;;;5010473;28;20049;-74
2022/05/12 12:28:59;;;;;;;3.50;0.90;;;21.80;64.70;;;;;;4995423;28;20052;-75
2022/05/12 12:31:47;;;;;;;6.03;1.58;;;22.00;64.60;;;;;;5010599;28;20046;-75
2022/05/12 12:34:17;;;;;;;3.05;0.93;;;22.10;64.90;;;;;;5007342;28;20402;-74
2022/05/12 12:36:51;;;;;;;2.50;1.00;;;22.10;63.40;;;;;;5011300;28;20052;-74
2022/05/12 12:39:51;;;;;;;2.75;0.98;;;21.80;61.30;;;;;;5000993;28;20100;-75
2022/05/12 12:42:21;;;;;;;3.75;1.02;;;21.70;62.90;;;;;;5003183;28;20050;-75
2022/05/12 12:45:16;;;;;;;1.67;0.77;;;21.50;65.00;;;;;;5011571;28;20048;-74
2022/05/12 12:48:07;;;;;;;12.00;1.90;;;21.60;59.60;;;;;;5010379;28;20041;-74
2022/05/12 12:50:44;;;;;;;3.00;0.80;;;21.80;65.80;;;;;;5010474;28;20067;-74
2022/05/12 12:59:04;;;;;;;2.92;1.30;;;21.60;63.50;;;;;;5005885;28;20045;-74
2022/05/12 13:01:59;;;;;;;1.73;0.80;;;21.60;61.50;;;;;;5010894;28;20045;-74
2022/05/12 13:04:34;;;;;;;2.80;0.80;;;21.60;63.00;;;;;;5010047;28;20297;-74
2022/05/12 13:07:06;;;;;;;2.67;0.70;;;21.50;60.20;;;;;;5007732;28;20046;-74
2022/05/12 13:09:37;;;;;;;1.88;0.80;;;21.40;61.30;;;;;;4994578;28;20085;-73
2022/05/12 13:12:18;;;;;;;3.25;0.80;;;21.40;62.20;;;;;;5010953;28;20104;-73
2022/05/12 13:14:45;;;;;;;2.00;0.82;;;21.40;61.40;;;;;;5009984;28;20054;-74
2022/05/12 13:17:25;;;;;;;3.15;1.08;;;21.60;62.50;;;;;;5009861;28;20641;-74
2022/05/12 13:19:51;;;;;;;5.32;1.25;;;21.50;62.90;;;;;;5026968;28;20047;-74
2022/05/12 13:22:43;;;;;;;3.70;1.92;;;21.20;61.10;;;;;;5010718;28;20379;-74
2022/05/12 13:25:10;;;;;;;;;;;20.80;61.70;;;;;;5000283;28;20050;-74
2022/05/12 13:27:38;;;;;;;1.88;0.98;;;20.70;64.70;;;;;;5010582;28;20263;-74
2022/05/12 13:30:11;;;;;;;3.08;0.75;;;20.80;61.40;;;;;;5009951;28;20671;-74
2022/05/12 13:32:46;;;;;;;4.20;0.90;;;20.90;62.70;;;;;;5010218;28;20100;-74